Time;durP1;ratioP1;P1;durP2;ratioP2;P2;SDS_P1;SDS_P2;PMS_P1;PMS_P2;Temp;Humidity;BMP_temperature;BMP_pressure;BME280_temperature;BME280_humidity;BME280_pressure;Samples;Min_cycle;Max_cycle;Signal;HPM_P1;HPM_P2
2021/12/03 00:00:16;;;;;;;40.55;15.45;;;;;;;;;;4989684;28;20077;-35
2021/12/03 00:02:42;;;;;;;44.65;16.20;;;;;;;;;;4993208;28;20496;-34
2021/12/03 00:05:09;;;;;;;31.75;15.35;;;;;;;;;;4990665;28;20470;-35
2021/12/03 00:07:37;;;;;;;38.35;15.80;;;;;;;;;;4991926;28;20027;-35
2021/12/03 00:10:05;;;;;;;35.08;14.43;;;;;;;;;;4997205;28;20116;-36
2021/12/03 00:12:31;;;;;;;44.17;14.88;;;;;;;;;;4994742;28;20026;-37
2021/12/03 00:14:57;;;;;;;35.90;14.13;;;;;;;;;;4991056;28;20053;-35
2021/12/03 00:17:23;;;;;;;35.88;13.95;;;;;;;;;;4995187;28;20031;-34
2021/12/03 00:19:49;;;;;;;40.38;14.40;;;;;;;;;;4990424;28;20038;-34
2021/12/03 00:22:15;;;;;;;36.70;13.82;;;;;;;;;;4993513;28;20073;-34
2021/12/03 00:24:41;;;;;;;33.13;13.60;;;;;;;;;;4989181;28;20421;-34
2021/12/03 00:27:07;;;;;;;36.13;15.20;;;;;;;;;;4992362;28;20481;-36
2021/12/03 00:29:33;;;;;;;39.60;13.90;;;;;;;;;;4993946;28;20112;-35
2021/12/03 00:31:59;;;;;;;42.40;15.95;;;;;;;;;;4990529;28;20062;-35
2021/12/03 00:34:27;;;;;;;40.83;14.80;;;;;;;;;;4993178;28;20108;-36
2021/12/03 00:36:53;;;;;;;34.65;14.77;;;;;;;;;;4991561;28;20466;-34
2021/12/03 00:39:19;;;;;;;47.80;16.42;;;;;;;;;;4990090;28;20109;-34
2021/12/03 00:41:48;;;;;;;39.90;16.75;;;;;;;;;;4990323;28;20030;-35
2021/12/03 00:44:14;;;;;;;38.50;15.68;;;;;;;;;;4990252;28;20030;-34
2021/12/03 00:46:40;;;;;;;48.63;16.38;;;;;;;;;;4995961;28;20022;-34
2021/12/03 00:49:06;;;;;;;50.20;17.02;;;;;;;;;;4995210;28;20058;-34
2021/12/03 00:51:32;;;;;;;46.85;16.00;;;;;;;;;;5000600;28;20040;-33
2021/12/03 00:53:58;;;;;;;45.85;17.58;;;;;;;;;;4993747;28;20054;-34
2021/12/03 00:56:24;;;;;;;37.20;16.10;;;;;;;;;;4996325;28;20049;-34
2021/12/03 00:58:50;;;;;;;40.53;15.93;;;;;;;;;;4992286;28;20021;-34
2021/12/03 01:01:17;;;;;;;41.45;14.80;;;;;;;;;;5007622;28;20023;-35
2021/12/03 01:03:43;;;;;;;37.88;15.40;;;;;;;;;;4994170;28;20054;-33
2021/12/03 01:06:09;;;;;;;43.55;15.32;;;;;;;;;;4994837;28;20484;-35
2021/12/03 01:08:36;;;;;;;38.22;15.25;;;;;;;;;;4991645;28;20072;-34
2021/12/03 01:11:03;;;;;;;36.45;15.18;;;;;;;;;;4994558;28;20054;-34
2021/12/03 01:13:29;;;;;;;35.22;13.52;;;;;;;;;;4991811;28;20482;-37
2021/12/03 01:15:55;;;;;;;33.25;14.48;;;;;;;;;;4996276;28;20457;-34
2021/12/03 01:18:21;;;;;;;42.17;15.27;;;;;;;;;;4993437;28;20054;-34
2021/12/03 01:20:47;;;;;;;27.58;11.85;;;;;;;;;;4995341;28;20061;-37
2021/12/03 01:23:13;;;;;;;47.63;15.52;;;;;;;;;;4991798;28;20108;-34
2021/12/03 01:25:40;;;;;;;32.60;13.35;;;;;;;;;;4995217;28;20069;-34
2021/12/03 01:28:06;;;;;;;39.05;14.65;;;;;;;;;;4993769;28;20033;-36
2021/12/03 01:30:32;;;;;;;37.47;14.05;;;;;;;;;;4994693;28;20109;-35
2021/12/03 01:32:59;;;;;;;40.33;14.30;;;;;;;;;;4994906;28;20053;-34
2021/12/03 01:35:26;;;;;;;36.03;13.23;;;;;;;;;;4994693;28;20031;-34
2021/12/03 01:37:52;;;;;;;39.92;14.38;;;;;;;;;;4996495;28;20370;-34
2021/12/03 01:40:19;;;;;;;37.08;15.00;;;;;;;;;;4995145;28;20041;-35
2021/12/03 01:42:45;;;;;;;40.38;16.20;;;;;;;;;;4996008;28;20092;-35
2021/12/03 01:45:13;;;;;;;35.20;14.93;;;;;;;;;;4994465;28;20144;-35
2021/12/03 01:47:41;;;;;;;37.55;15.98;;;;;;;;;;4993811;28;20077;-34
2021/12/03 01:50:07;;;;;;;35.10;16.35;;;;;;;;;;4996768;28;20030;-34
2021/12/03 01:52:33;;;;;;;33.05;16.33;;;;;;;;;;4994077;28;20441;-34
2021/12/03 01:55:00;;;;;;;35.85;16.67;;;;;;;;;;4994803;28;20088;-35
2021/12/03 01:57:26;;;;;;;34.60;15.98;;;;;;;;;;4991052;28;20019;-34
2021/12/03 01:59:52;;;;;;;38.90;14.68;;;;;;;;;;4997205;28;20069;-33
2021/12/03 02:02:18;;;;;;;27.88;13.98;;;;;;;;;;4993304;28;20100;-34
2021/12/03 02:04:44;;;;;;;35.47;13.93;;;;;;;;;;4992526;28;20049;-35
2021/12/03 02:07:10;;;;;;;38.63;13.70;;;;;;;;;;4992307;28;20433;-36
2021/12/03 02:09:36;;;;;;;28.27;12.88;;;;;;;;;;4994952;28;20041;-34
2021/12/03 02:12:03;;;;;;;33.83;13.57;;;;;;;;;;5035221;23;20041;-42
2021/12/03 02:14:29;;;;;;;35.47;12.75;;;;;;;;;;5030390;28;20029;-42
2021/12/03 02:16:55;;;;;;;28.98;13.48;;;;;;;;;;5024491;28;20044;-42
2021/12/03 02:19:21;;;;;;;25.48;12.23;;;;;;;;;;5027919;28;20030;-42
2021/12/03 02:21:47;;;;;;;30.02;13.50;;;;;;;;;;5016324;28;20045;-42
2021/12/03 02:24:14;;;;;;;31.20;12.38;;;;;;;;;;5013074;28;20037;-43
2021/12/03 02:26:41;;;;;;;34.13;14.38;;;;;;;;;;5010206;28;20029;-42
2021/12/03 02:29:08;;;;;;;28.88;14.20;;;;;;;;;;5010017;28;20025;-43
2021/12/03 02:31:34;;;;;;;32.65;14.63;;;;;;;;;;5010899;28;20030;-43
2021/12/03 02:34:00;;;;;;;34.08;14.80;;;;;;;;;;5012881;28;20049;-42
2021/12/03 02:36:26;;;;;;;32.15;13.65;;;;;;;;;;5006938;28;20056;-44
2021/12/03 02:38:52;;;;;;;37.40;15.07;;;;;;;;;;5012522;28;20626;-43
2021/12/03 02:41:18;;;;;;;30.88;13.70;;;;;;;;;;5007832;28;20094;-43
2021/12/03 02:43:44;;;;;;;28.17;13.77;;;;;;;;;;5003654;28;20442;-43
2021/12/03 02:46:11;;;;;;;28.63;14.10;;;;;;;;;;5003620;28;20033;-42
2021/12/03 02:48:38;;;;;;;28.23;13.82;;;;;;;;;;5000700;28;20592;-43
2021/12/03 02:51:05;;;;;;;30.35;14.50;;;;;;;;;;5003000;28;20053;-43
2021/12/03 02:53:31;;;;;;;28.48;13.93;;;;;;;;;;5000024;28;20101;-43
2021/12/03 02:55:57;;;;;;;35.00;14.10;;;;;;;;;;4998737;28;20061;-43
2021/12/03 02:58:23;;;;;;;28.65;14.05;;;;;;;;;;5002998;28;20054;-41
2021/12/03 03:00:50;;;;;;;37.65;15.57;;;;;;;;;;4996819;28;20045;-42
2021/12/03 03:03:16;;;;;;;31.63;14.05;;;;;;;;;;5002875;28;20019;-43
2021/12/03 03:05:45;;;;;;;27.33;14.23;;;;;;;;;;5000433;28;20036;-42
2021/12/03 03:08:11;;;;;;;24.38;14.05;;;;;;;;;;5003601;28;20425;-42
2021/12/03 03:10:41;;;;;;;27.40;12.52;;;;;;;;;;4999448;28;20466;-42
2021/12/03 03:13:08;;;;;;;23.00;13.20;;;;;;;;;;5004973;28;20485;-42
2021/12/03 03:15:34;;;;;;;28.25;14.20;;;;;;;;;;4999058;28;20038;-41
2021/12/03 03:18:09;;;;;;;27.67;14.35;;;;;;;;;;4996701;28;20057;-42
2021/12/03 03:20:37;;;;;;;26.27;13.93;;;;;;;;;;4999406;28;20092;-42
2021/12/03 03:23:03;;;;;;;28.45;14.30;;;;;;;;;;5000641;28;20026;-42
2021/12/03 03:25:29;;;;;;;27.08;13.68;;;;;;;;;;5003735;28;20099;-42
2021/12/03 03:27:55;;;;;;;22.63;13.20;;;;;;;;;;4999390;28;20034;-42
2021/12/03 03:30:21;;;;;;;29.05;14.02;;;;;;;;;;4998573;28;20029;-43
2021/12/03 03:32:49;;;;;;;27.65;13.40;;;;;;;;;;5000781;28;20460;-43
2021/12/03 03:35:15;;;;;;;29.20;13.50;;;;;;;;;;5002481;28;20631;-42
2021/12/03 03:37:41;;;;;;;29.67;13.52;;;;;;;;;;5004855;28;20030;-43
2021/12/03 03:40:08;;;;;;;28.38;13.38;;;;;;;;;;5000361;28;20030;-42
2021/12/03 03:42:34;;;;;;;24.00;13.82;;;;;;;;;;4998263;28;20050;-42
2021/12/03 03:45:00;;;;;;;26.20;13.90;;;;;;;;;;4997890;28;20018;-42
2021/12/03 03:47:26;;;;;;;26.65;12.38;;;;;;;;;;5004066;28;20071;-42
2021/12/03 03:49:52;;;;;;;22.83;13.38;;;;;;;;;;4998121;28;20046;-43
2021/12/03 03:52:18;;;;;;;27.10;12.77;;;;;;;;;;5000560;28;20713;-42
2021/12/03 03:54:44;;;;;;;21.33;13.35;;;;;;;;;;4999600;28;20081;-42
2021/12/03 03:57:10;;;;;;;31.70;14.10;;;;;;;;;;5006013;28;20413;-43
2021/12/03 03:59:36;;;;;;;28.05;14.30;;;;;;;;;;4996229;28;20023;-42
2021/12/03 04:02:02;;;;;;;24.70;13.32;;;;;;;;;;4998731;28;20033;-42
2021/12/03 04:04:28;;;;;;;25.35;15.20;;;;;;;;;;4999645;28;20053;-43
2021/12/03 04:06:55;;;;;;;28.05;15.25;;;;;;;;;;5005949;28;20049;-42
2021/12/03 04:09:21;;;;;;;24.75;14.90;;;;;;;;;;5004608;28;20029;-42
2021/12/03 04:11:48;;;;;;;25.70;13.38;;;;;;;;;;4997551;28;20057;-42
2021/12/03 04:14:14;;;;;;;30.23;15.48;;;;;;;;;;5002527;28;20409;-42
2021/12/03 04:16:40;;;;;;;33.13;16.15;;;;;;;;;;5002083;28;20026;-42
2021/12/03 04:19:06;;;;;;;27.10;17.08;;;;;;;;;;4996538;28;20026;-43
2021/12/03 04:21:32;;;;;;;27.33;15.77;;;;;;;;;;4997576;28;20076;-42
2021/12/03 04:23:58;;;;;;;27.23;17.20;;;;;;;;;;4997318;28;20023;-43
2021/12/03 04:26:25;;;;;;;36.08;17.85;;;;;;;;;;5022995;28;20076;-42
2021/12/03 04:28:51;;;;;;;34.08;17.75;;;;;;;;;;5002022;28;20030;-43
2021/12/03 04:31:17;;;;;;;29.08;17.25;;;;;;;;;;4993349;28;20029;-42
2021/12/03 04:33:43;;;;;;;30.95;18.05;;;;;;;;;;4996738;28;20072;-42
2021/12/03 04:36:09;;;;;;;27.95;18.10;;;;;;;;;;4994829;28;20026;-43
2021/12/03 04:38:35;;;;;;;31.38;18.55;;;;;;;;;;4995991;28;20018;-42
2021/12/03 04:41:02;;;;;;;29.48;17.92;;;;;;;;;;4997181;28;20023;-43
2021/12/03 04:43:29;;;;;;;36.22;18.02;;;;;;;;;;4994031;28;20477;-42
2021/12/03 04:45:55;;;;;;;31.17;18.20;;;;;;;;;;4991801;28;20061;-43
2021/12/03 04:48:21;;;;;;;34.45;18.58;;;;;;;;;;4994334;28;20038;-42
2021/12/03 04:50:47;;;;;;;30.65;17.80;;;;;;;;;;4994539;28;20132;-42
2021/12/03 04:53:14;;;;;;;29.73;16.65;;;;;;;;;;4995700;28;20030;-43
2021/12/03 04:55:41;;;;;;;31.38;17.13;;;;;;;;;;4995204;28;20474;-42
2021/12/03 04:58:07;;;;;;;28.98;17.02;;;;;;;;;;4996174;28;20033;-42
2021/12/03 05:00:45;;;;;;;33.15;17.20;;;;;;;;;;4992392;28;20018;-42
2021/12/03 05:03:11;;;;;;;35.20;17.52;;;;;;;;;;4996299;28;20029;-42
2021/12/03 05:05:39;;;;;;;27.30;15.95;;;;;;;;;;4992324;28;20029;-43
2021/12/03 05:08:10;;;;;;;27.92;16.08;;;;;;;;;;4990413;28;20024;-42
2021/12/03 05:10:37;;;;;;;30.40;15.77;;;;;;;;;;4996147;28;20050;-43
2021/12/03 05:13:05;;;;;;;24.15;15.55;;;;;;;;;;4995340;28;20034;-42
2021/12/03 05:15:32;;;;;;;26.92;15.95;;;;;;;;;;4991914;28;20495;-42
2021/12/03 05:17:58;;;;;;;25.30;15.00;;;;;;;;;;4994727;28;20053;-42
2021/12/03 05:20:24;;;;;;;25.58;15.27;;;;;;;;;;4996635;28;20027;-43
2021/12/03 05:22:52;;;;;;;24.35;15.07;;;;;;;;;;4991853;28;20032;-42
2021/12/03 05:25:18;;;;;;;21.10;13.00;;;;;;;;;;5003025;28;20468;-42
2021/12/03 05:27:45;;;;;;;22.95;14.07;;;;;;;;;;4990814;28;20097;-42
2021/12/03 05:30:11;;;;;;;25.38;13.73;;;;;;;;;;4992945;28;20036;-42
2021/12/03 05:32:37;;;;;;;25.02;13.32;;;;;;;;;;4998478;28;20030;-42
2021/12/03 05:35:03;;;;;;;31.85;14.15;;;;;;;;;;4998933;28;20488;-42
2021/12/03 05:37:29;;;;;;;35.08;13.50;;;;;;;;;;4998336;28;20026;-42
2021/12/03 05:39:55;;;;;;;23.23;14.13;;;;;;;;;;4997496;28;20481;-42
2021/12/03 05:42:21;;;;;;;21.38;13.45;;;;;;;;;;4997420;28;20101;-43
2021/12/03 05:44:47;;;;;;;22.65;12.93;;;;;;;;;;5003299;28;20398;-42
2021/12/03 05:47:13;;;;;;;21.83;12.90;;;;;;;;;;4997824;28;20029;-43
2021/12/03 05:49:39;;;;;;;23.65;13.50;;;;;;;;;;4995445;28;20026;-43
2021/12/03 05:52:05;;;;;;;21.20;11.88;;;;;;;;;;4993825;28;20636;-42
2021/12/03 05:54:32;;;;;;;17.15;11.25;;;;;;;;;;4996718;28;20600;-42
2021/12/03 05:56:58;;;;;;;17.27;11.95;;;;;;;;;;4995931;28;20101;-42
2021/12/03 05:59:24;;;;;;;31.05;12.68;;;;;;;;;;4994801;28;20118;-42
2021/12/03 06:01:50;;;;;;;21.15;10.82;;;;;;;;;;4992750;28;20476;-41
2021/12/03 06:04:16;;;;;;;16.10;10.70;;;;;;;;;;5000366;28;20019;-42
2021/12/03 06:06:42;;;;;;;26.85;11.80;;;;;;;;;;4997314;28;20037;-43
2021/12/03 06:09:08;;;;;;;23.23;12.50;;;;;;;;;;5004337;28;20053;-43
2021/12/03 06:11:34;;;;;;;26.23;11.93;;;;;;;;;;5004375;28;20026;-44
2021/12/03 06:14:00;;;;;;;20.67;11.95;;;;;;;;;;5000521;28;20049;-43
2021/12/03 06:16:26;;;;;;;22.35;11.90;;;;;;;;;;4996836;28;20439;-42
2021/12/03 06:18:52;;;;;;;18.35;12.52;;;;;;;;;;4998909;28;20038;-43
2021/12/03 06:21:18;;;;;;;22.00;11.20;;;;;;;;;;5000152;28;20034;-42
2021/12/03 06:23:44;;;;;;;24.50;12.10;;;;;;;;;;4999667;28;20053;-44
2021/12/03 06:26:11;;;;;;;17.00;11.02;;;;;;;;;;5001052;28;20026;-43
2021/12/03 06:28:38;;;;;;;18.70;11.30;;;;;;;;;;4991441;28;20037;-43
2021/12/03 06:31:05;;;;;;;21.95;11.23;;;;;;;;;;4994888;28;20139;-43
2021/12/03 06:33:31;;;;;;;25.48;11.98;;;;;;;;;;5001711;28;20437;-43
2021/12/03 06:35:57;;;;;;;17.50;11.45;;;;;;;;;;4999239;28;20437;-44
2021/12/03 06:38:23;;;;;;;18.27;11.27;;;;;;;;;;5001461;28;20049;-43
2021/12/03 06:40:50;;;;;;;22.95;11.23;;;;;;;;;;4999149;28;20027;-43
2021/12/03 06:43:16;;;;;;;19.65;11.07;;;;;;;;;;5003744;28;20049;-43
2021/12/03 06:45:42;;;;;;;21.88;10.57;;;;;;;;;;5006363;28;20026;-43
2021/12/03 06:48:08;;;;;;;17.90;11.13;;;;;;;;;;4995662;28;20026;-41
2021/12/03 06:50:34;;;;;;;18.10;10.27;;;;;;;;;;5024103;28;20098;-43
2021/12/03 06:53:04;;;;;;;23.85;10.82;;;;;;;;;;5029167;28;20365;-43
2021/12/03 06:55:39;;;;;;;25.10;10.82;;;;;;;;;;4998984;28;20534;-43
2021/12/03 06:58:05;;;;;;;28.58;11.73;;;;;;;;;;5000174;28;20030;-43
2021/12/03 07:00:31;;;;;;;24.55;12.57;;;;;;;;;;5007190;28;20021;-42
2021/12/03 07:02:57;;;;;;;21.90;12.40;;;;;;;;;;5010473;28;20076;-43
2021/12/03 07:05:23;;;;;;;23.77;12.77;;;;;;;;;;5006092;28;20021;-42
2021/12/03 07:07:50;;;;;;;31.65;12.85;;;;;;;;;;4991459;28;20466;-43
2021/12/03 07:10:16;;;;;;;17.05;11.73;;;;;;;;;;5000069;28;20033;-43
2021/12/03 07:12:42;;;;;;;22.23;12.93;;;;;;;;;;5012751;28;20052;-42
2021/12/03 07:15:08;;;;;;;25.58;12.88;;;;;;;;;;5003794;28;20037;-44
2021/12/03 07:17:34;;;;;;;20.27;12.40;;;;;;;;;;5007938;28;20030;-42
2021/12/03 07:20:01;;;;;;;19.85;11.90;;;;;;;;;;5022660;28;20097;-44
2021/12/03 07:22:27;;;;;;;26.42;14.45;;;;;;;;;;5010520;28;20026;-44
2021/12/03 07:24:53;;;;;;;22.42;12.75;;;;;;;;;;5010853;28;20058;-45
2021/12/03 07:27:20;;;;;;;23.25;13.75;;;;;;;;;;5009907;28;20465;-43
2021/12/03 07:29:47;;;;;;;26.65;14.43;;;;;;;;;;5009453;28;20029;-44
2021/12/03 07:32:17;;;;;;;25.77;15.02;;;;;;;;;;5007186;28;20057;-43
2021/12/03 07:34:43;;;;;;;28.55;14.18;;;;;;;;;;5009554;28;20018;-44
2021/12/03 07:37:09;;;;;;;23.58;14.35;;;;;;;;;;5008393;28;20022;-39
2021/12/03 07:39:36;;;;;;;26.95;16.30;;;;;;;;;;5009432;28;20025;-40
2021/12/03 07:42:02;;;;;;;26.63;16.02;;;;;;;;;;5010169;28;20129;-40
2021/12/03 07:44:28;;;;;;;26.10;14.93;;;;;;;;;;5006644;28;20030;-38
2021/12/03 07:46:54;;;;;;;30.92;16.45;;;;;;;;;;5008091;28;20476;-40
2021/12/03 07:49:21;;;;;;;27.02;16.58;;;;;;;;;;5008703;28;20045;-38
2021/12/03 07:51:47;;;;;;;27.70;15.55;;;;;;;;;;5010575;28;20488;-41
2021/12/03 07:54:13;;;;;;;31.42;17.77;;;;;;;;;;5008469;28;20496;-41
2021/12/03 07:56:39;;;;;;;27.65;16.02;;;;;;;;;;5009720;28;20032;-38
2021/12/03 07:59:06;;;;;;;40.45;17.02;;;;;;;;;;5007841;28;20018;-40
2021/12/03 08:01:33;;;;;;;29.23;18.45;;;;;;;;;;5008292;28;20026;-38
2021/12/03 08:03:59;;;;;;;28.98;15.63;;;;;;;;;;5009356;28;20385;-40
2021/12/03 08:06:25;;;;;;;30.73;17.52;;;;;;;;;;5011388;28;20032;-38
2021/12/03 08:08:51;;;;;;;29.10;17.13;;;;;;;;;;5008847;28;20068;-40
2021/12/03 08:11:17;;;;;;;33.08;17.58;;;;;;;;;;5008530;28;20041;-38
2021/12/03 08:13:43;;;;;;;25.10;17.17;;;;;;;;;;5046180;23;20124;-35
2021/12/03 08:16:09;;;;;;;35.20;19.55;;;;;;;;;;5048462;28;20040;-35
2021/12/03 08:18:35;;;;;;;29.77;20.02;;;;;;;;;;5054537;28;20025;-34
2021/12/03 08:21:03;;;;;;;32.80;21.50;;;;;;;;;;5056026;28;20029;-35
2021/12/03 08:23:29;;;;;;;40.35;22.33;;;;;;;;;;5053920;28;20103;-34
2021/12/03 08:25:55;;;;;;;34.17;20.15;;;;;;;;;;5059273;28;20036;-34
2021/12/03 08:28:21;;;;;;;45.38;23.27;;;;;;;;;;5050065;28;20039;-34
2021/12/03 08:30:48;;;;;;;38.53;23.17;;;;;;;;;;5040337;28;20029;-35
2021/12/03 08:33:14;;;;;;;44.42;22.92;;;;;;;;;;5049334;28;20594;-35
2021/12/03 08:35:40;;;;;;;42.63;22.67;;;;;;;;;;5056685;28;20074;-35
2021/12/03 08:38:06;;;;;;;37.92;22.02;;;;;;;;;;5054984;28;20029;-35
2021/12/03 08:40:32;;;;;;;43.28;23.05;;;;;;;;;;5068830;28;20024;-35
2021/12/03 08:42:58;;;;;;;47.15;22.17;;;;;;;;;;5064496;28;20048;-35
2021/12/03 08:45:25;;;;;;;51.72;23.33;;;;;;;;;;5054592;28;20475;-35
2021/12/03 08:47:54;;;;;;;48.80;23.70;;;;;;;;;;5065395;28;20536;-34
2021/12/03 08:50:29;;;;;;;42.35;23.00;;;;;;;;;;5052479;28;20128;-34
2021/12/03 08:55:42;;;;;;;41.17;22.00;;;;;;;;;;5042197;28;20116;-35
2021/12/03 08:58:09;;;;;;;52.60;22.58;;;;;;;;;;5047876;28;20549;-35
2021/12/03 09:00:36;;;;;;;41.25;21.38;;;;;;;;;;5050526;28;20026;-35
2021/12/03 09:03:02;;;;;;;39.17;21.02;;;;;;;;;;5035348;28;20474;-35
2021/12/03 09:05:31;;;;;;;47.63;21.65;;;;;;;;;;5051529;28;20111;-34
2021/12/03 09:07:57;;;;;;;43.92;21.92;;;;;;;;;;5067947;28;20044;-35
2021/12/03 09:10:24;;;;;;;48.10;21.92;;;;;;;;;;5051102;28;20025;-34
2021/12/03 09:12:51;;;;;;;44.22;22.13;;;;;;;;;;5048678;28;20112;-35
2021/12/03 09:15:23;;;;;;;42.42;20.77;;;;;;;;;;5047011;28;20025;-34
2021/12/03 09:23:11;;;;;;;42.55;20.50;;;;;;;;;;5050890;28;20052;-34
2021/12/03 09:25:44;;;;;;;47.75;21.70;;;;;;;;;;5051133;28;20033;-35
2021/12/03 09:28:12;;;;;;;41.05;19.70;;;;;;;;;;5047674;28;20487;-34
2021/12/03 09:30:41;;;;;;;38.67;20.55;;;;;;;;;;5051625;28;20052;-35
2021/12/03 09:33:09;;;;;;;39.53;19.38;;;;;;;;;;5049935;28;20024;-35
2021/12/03 09:35:41;;;;;;;49.50;22.17;;;;;;;;;;5058357;28;20431;-35
2021/12/03 09:38:07;;;;;;;44.08;20.55;;;;;;;;;;5052103;28;20024;-35
2021/12/03 09:40:35;;;;;;;39.50;20.40;;;;;;;;;;5058723;28;20025;-34
2021/12/03 09:43:01;;;;;;;48.75;21.55;;;;;;;;;;5053055;28;20031;-35
2021/12/03 09:45:29;;;;;;;40.60;20.90;;;;;;;;;;5051307;28;20099;-35
2021/12/03 09:47:55;;;;;;;47.25;20.55;;;;;;;;;;5059307;28;20036;-35
2021/12/03 09:50:22;;;;;;;33.28;18.48;;;;;;;;;;5052945;28;20104;-34
2021/12/03 09:55:33;;;;;;;48.13;22.33;;;;;;;;;;5066814;28;20141;-35
2021/12/03 10:00:52;;;;;;;39.10;19.38;;;;;;;;;;5046426;28;20064;-34
2021/12/03 10:04:26;;;;;;;37.15;19.95;;;;;;;;;;5041815;28;20025;-34
2021/12/03 10:07:45;;;;;;;47.97;20.67;;;;;;;;;;5038517;28;20522;-35
2021/12/03 10:12:43;;;;;;;51.88;20.48;;;;;;;;;;5055053;28;20074;-35
2021/12/03 10:15:16;;;;;;;46.72;20.15;;;;;;;;;;5050515;28;20167;-35
2021/12/03 10:17:48;;;;;;;43.75;19.98;;;;;;;;;;5049048;28;20100;-35
2021/12/03 10:20:28;;;;;;;44.50;20.38;;;;;;;;;;5049394;28;20020;-35
2021/12/03 10:45:31;;;;;;;49.13;20.83;;;;;;;;;;5022991;28;20072;-35
2021/12/03 10:48:17;;;;;;;63.75;23.98;;;;;;;;;;5049406;28;20108;-35
2021/12/03 10:51:11;;;;;;;50.08;22.33;;;;;;;;;;5054254;28;20108;-35
2021/12/03 10:53:36;;;;;;;48.28;22.23;;;;;;;;;;5044431;28;20034;-36
2021/12/03 10:56:32;;;;;;;55.38;22.02;;;;;;;;;;5039430;28;20438;-36
2021/12/03 10:59:13;;;;;;;;;;;;;;;;;;5044436;28;20662;-35
2021/12/03 11:37:05;;;;;;;59.85;24.05;;;;;;;;;;5043868;28;20357;-35
2021/12/03 11:39:56;;;;;;;65.75;26.35;;;;;;;;;;5036954;28;20060;-36
2021/12/03 12:41:11;;;;;;;58.42;22.27;;;;;;;;;;5040629;28;20360;-35
2021/12/03 13:36:21;;;;;;;36.97;18.30;;;;;;;;;;5056675;28;20490;-35
2021/12/03 14:08:33;;;;;;;33.53;15.50;;;;;;;;;;5051645;28;20384;-38
2021/12/03 14:36:28;;;;;;;45.53;16.98;;;;;;;;;;5002504;28;20652;-40
2021/12/03 14:52:43;;;;;;;43.42;19.02;;;;;;;;;;5006673;28;20030;-40
2021/12/03 14:55:10;;;;;;;47.55;16.55;;;;;;;;;;5005761;28;20404;-39
2021/12/03 14:57:58;;;;;;;45.50;18.92;;;;;;;;;;5009447;28;20076;-38
2021/12/03 15:00:29;;;;;;;45.60;16.92;;;;;;;;;;5008750;28;20034;-38
2021/12/03 15:08:22;;;;;;;45.50;18.80;;;;;;;;;;5009261;28;20038;-39
2021/12/03 15:29:29;;;;;;;42.58;17.65;;;;;;;;;;5004850;28;20132;-38
2021/12/03 15:31:55;;;;;;;47.08;20.90;;;;;;;;;;5010550;28;20053;-38
2021/12/03 15:34:44;;;;;;;52.40;19.23;;;;;;;;;;5008876;28;20029;-37
2021/12/03 15:37:21;;;;;;;40.25;19.85;;;;;;;;;;5006839;28;20041;-38
2021/12/03 15:56:16;;;;;;;39.22;16.13;;;;;;;;;;5009065;28;20037;-37
2021/12/03 16:12:10;;;;;;;44.28;18.52;;;;;;;;;;4990942;28;20269;-43
2021/12/03 16:14:49;;;;;;;43.30;17.05;;;;;;;;;;4994784;28;20538;-44
2021/12/03 16:17:36;;;;;;;37.58;17.35;;;;;;;;;;5004254;28;20388;-45
2021/12/03 16:20:31;;;;;;;37.90;17.92;;;;;;;;;;5006262;28;20022;-44
2021/12/03 16:26:03;;;;;;;38.55;18.30;;;;;;;;;;5004757;28;20049;-44
2021/12/03 16:47:52;;;;;;;40.35;16.75;;;;;;;;;;5006524;28;20029;-44
2021/12/03 16:52:59;;;;;;;36.00;16.95;;;;;;;;;;5009583;28;20510;-44
2021/12/03 16:55:26;;;;;;;40.03;17.58;;;;;;;;;;5007898;28;20105;-44
2021/12/03 16:57:53;;;;;;;44.45;18.05;;;;;;;;;;5007305;28;20430;-43
2021/12/03 17:00:25;;;;;;;31.27;15.13;;;;;;;;;;5010916;28;20057;-44
2021/12/03 17:18:54;;;;;;;32.55;14.77;;;;;;;;;;5005776;28;20057;-42
2021/12/03 17:21:41;;;;;;;35.22;14.55;;;;;;;;;;4999098;28;20456;-42
2021/12/03 17:51:24;;;;;;;24.45;12.38;;;;;;;;;;5013113;28;20049;-43
2021/12/03 17:56:37;;;;;;;17.98;10.88;;;;;;;;;;5012317;28;20040;-43
2021/12/03 17:59:26;;;;;;;35.08;16.52;;;;;;;;;;5012634;28;20026;-43
2021/12/03 18:01:58;;;;;;;29.73;15.23;;;;;;;;;;5006157;28;20022;-42
2021/12/03 18:04:57;;;;;;;29.48;14.43;;;;;;;;;;5012554;28;20477;-43
2021/12/03 18:18:26;;;;;;;29.17;14.60;;;;;;;;;;5002801;28;20026;-42
2021/12/03 18:51:32;;;;;;;28.80;16.75;;;;;;;;;;4961415;28;20426;-43
2021/12/03 18:54:19;;;;;;;31.13;17.58;;;;;;;;;;5006162;28;20046;-42
2021/12/03 18:56:47;;;;;;;33.70;17.73;;;;;;;;;;5010011;28;20066;-42
2021/12/03 18:59:14;;;;;;;35.00;18.90;;;;;;;;;;5011804;28;20126;-42
2021/12/03 19:01:40;;;;;;;27.42;17.40;;;;;;;;;;5009364;28;20097;-42
2021/12/03 19:04:33;;;;;;;28.58;18.27;;;;;;;;;;5011221;28;20026;-42
2021/12/03 19:09:33;;;;;;;38.10;21.35;;;;;;;;;;5010009;28;20033;-42
2021/12/03 19:12:03;;;;;;;32.35;18.88;;;;;;;;;;5008231;28;20457;-43
2021/12/03 19:14:33;;;;;;;30.00;18.23;;;;;;;;;;5003962;28;20061;-43
2021/12/03 19:16:59;;;;;;;35.05;19.13;;;;;;;;;;5008265;28;20053;-43
2021/12/03 19:19:28;;;;;;;31.77;18.02;;;;;;;;;;5008523;28;20402;-43
2021/12/03 19:21:57;;;;;;;27.65;17.55;;;;;;;;;;5008299;28;20028;-43
2021/12/03 19:24:23;;;;;;;28.77;17.67;;;;;;;;;;5008984;28;20476;-43
2021/12/03 19:26:50;;;;;;;28.85;18.13;;;;;;;;;;5017909;28;20033;-43
2021/12/03 19:29:17;;;;;;;31.08;18.75;;;;;;;;;;5013146;28;20037;-43
2021/12/03 19:31:44;;;;;;;29.52;17.67;;;;;;;;;;5010494;28;20123;-43
2021/12/03 19:34:11;;;;;;;31.10;18.95;;;;;;;;;;5009155;28;20033;-43
2021/12/03 19:36:43;;;;;;;32.88;19.05;;;;;;;;;;5009216;28;20089;-43
2021/12/03 19:39:10;;;;;;;31.38;18.80;;;;;;;;;;5005675;28;20014;-42
2021/12/03 19:42:12;;;;;;;34.28;20.33;;;;;;;;;;5004775;28;20013;-42
2021/12/03 19:44:36;;;;;;;34.70;19.55;;;;;;;;;;5004750;28;20037;-43
2021/12/03 19:47:03;;;;;;;34.95;19.08;;;;;;;;;;5004496;28;20037;-42
2021/12/03 19:49:44;;;;;;;35.08;19.95;;;;;;;;;;5013593;28;20048;-43
2021/12/03 19:52:21;;;;;;;30.40;20.08;;;;;;;;;;5009497;28;20034;-42
2021/12/03 19:54:47;;;;;;;36.53;21.38;;;;;;;;;;5010752;28;20026;-43
2021/12/03 19:57:13;;;;;;;37.47;21.35;;;;;;;;;;5012595;28;20060;-43
2021/12/03 19:59:39;;;;;;;37.45;21.15;;;;;;;;;;5005914;28;20033;-44
2021/12/03 20:02:05;;;;;;;38.58;24.55;;;;;;;;;;5009598;28;20049;-44
2021/12/03 20:04:31;;;;;;;36.55;21.27;;;;;;;;;;5010057;28;20076;-43
2021/12/03 20:06:57;;;;;;;36.50;21.90;;;;;;;;;;5011207;28;20613;-43
2021/12/03 20:09:28;;;;;;;35.10;21.38;;;;;;;;;;5011510;28;20030;-42
2021/12/03 20:12:02;;;;;;;36.88;22.35;;;;;;;;;;5012040;28;20428;-43
2021/12/03 20:17:11;;;;;;;32.75;19.83;;;;;;;;;;4950048;28;20050;-40
2021/12/03 20:19:43;;;;;;;39.25;22.92;;;;;;;;;;4951459;28;20038;-38
2021/12/03 20:22:17;;;;;;;35.97;24.13;;;;;;;;;;4948717;28;20407;-37
2021/12/03 20:27:24;;;;;;;34.30;22.30;;;;;;;;;;4954103;28;20506;-37
2021/12/03 20:29:56;;;;;;;43.30;24.88;;;;;;;;;;4951128;28;20533;-38
2021/12/03 20:35:07;;;;;;;39.92;24.77;;;;;;;;;;4952057;28;20055;-37
2021/12/03 20:37:51;;;;;;;48.28;25.17;;;;;;;;;;4955373;28;20027;-37
2021/12/03 20:40:23;;;;;;;44.42;26.65;;;;;;;;;;4950416;28;20031;-37
2021/12/03 20:48:01;;;;;;;43.17;26.15;;;;;;;;;;4957432;28;20031;-37
2021/12/03 21:09:33;;;;;;;38.83;24.80;;;;;;;;;;4963653;28;20042;-37
2021/12/03 21:12:03;;;;;;;45.17;25.23;;;;;;;;;;4955722;28;20031;-37
2021/12/03 21:14:32;;;;;;;51.92;28.10;;;;;;;;;;4954750;29;20039;-38
2021/12/03 21:17:49;;;;;;;40.08;25.33;;;;;;;;;;4953564;28;20027;-38
2021/12/03 21:19:58;;;;;;;44.25;25.98;;;;;;;;;;4945484;28;20043;-37
2021/12/03 21:22:29;;;;;;;40.50;22.90;;;;;;;;;;4952371;28;20034;-37
2021/12/03 21:24:59;;;;;;;39.05;23.02;;;;;;;;;;4952828;28;20019;-37
2021/12/03 21:27:33;;;;;;;43.78;25.17;;;;;;;;;;4954004;28;20102;-37
2021/12/03 21:32:55;;;;;;;39.45;23.67;;;;;;;;;;4959688;28;20417;-37
2021/12/03 21:43:35;;;;;;;45.90;26.13;;;;;;;;;;4952764;28;20030;-37
2021/12/03 21:46:01;;;;;;;48.63;26.30;;;;;;;;;;4952292;28;20360;-37
2021/12/03 21:48:27;;;;;;;41.03;26.00;;;;;;;;;;4958211;28;20027;-38
2021/12/03 21:50:53;;;;;;;42.47;25.88;;;;;;;;;;4955897;28;20489;-38
2021/12/03 21:53:19;;;;;;;39.13;24.10;;;;;;;;;;4957132;28;20755;-37
2021/12/03 21:55:47;;;;;;;41.50;24.77;;;;;;;;;;4953202;28;20474;-37
2021/12/03 21:58:13;;;;;;;45.00;24.38;;;;;;;;;;4951799;28;20019;-37
2021/12/03 22:00:40;;;;;;;43.25;24.80;;;;;;;;;;4951008;29;20363;-37
2021/12/03 22:03:07;;;;;;;43.92;25.58;;;;;;;;;;4951148;28;20055;-37
2021/12/03 22:05:33;;;;;;;40.53;23.75;;;;;;;;;;4950957;28;20423;-37
2021/12/03 22:07:59;;;;;;;41.88;25.40;;;;;;;;;;4955122;28;20023;-37
2021/12/03 22:10:25;;;;;;;43.15;26.25;;;;;;;;;;4952512;28;20045;-37
2021/12/03 22:12:51;;;;;;;44.65;26.05;;;;;;;;;;4953666;28;20035;-35